createdAt,value
2022-10-18T00:00:08.777Z,18.98
2022-10-18T00:02:57.977Z,20.80
2022-10-18T00:05:24.991Z,21.10
2022-10-18T00:07:51.785Z,28.50
2022-10-18T00:10:19.129Z,19.80
2022-10-18T00:15:13.938Z,23.70
2022-10-18T00:17:40.759Z,30.13
2022-10-18T00:20:08.512Z,18.33
2022-10-18T00:22:39.834Z,16.20
2022-10-18T00:25:08.202Z,16.90
2022-10-18T00:27:35.579Z,15.88
2022-10-18T00:30:03.210Z,15.52
2022-10-18T00:32:30.313Z,19.67
2022-10-18T00:34:57.594Z,16.55
2022-10-18T00:37:24.444Z,16.83
2022-10-18T00:42:21.021Z,21.40
2022-10-18T00:44:51.160Z,17.40
2022-10-18T00:47:18.355Z,16.85
2022-10-18T00:49:51.756Z,16.70
2022-10-18T00:52:22.503Z,15.60
2022-10-18T00:54:51.462Z,16.92
2022-10-18T00:57:18.554Z,16.02
2022-10-18T00:59:46.491Z,15.73
2022-10-18T01:02:15.095Z,14.90
2022-10-18T01:04:42.233Z,17.45
2022-10-18T01:07:27.590Z,16.88
2022-10-18T01:10:15.485Z,15.80
2022-10-18T01:13:03.396Z,17.70
2022-10-18T01:15:38.214Z,14.27
2022-10-18T01:18:10.506Z,16.98
2022-10-18T01:20:59.341Z,21.67
2022-10-18T01:23:45.983Z,15.23
2022-10-18T01:26:19.430Z,15.23
2022-10-18T01:28:55.402Z,16.17
2022-10-18T01:31:25.931Z,14.68
2022-10-18T01:33:57.771Z,15.13
2022-10-18T01:36:33.387Z,15.45
2022-10-18T01:39:03.137Z,14.48
2022-10-18T01:41:30.190Z,15.57
2022-10-18T01:43:59.060Z,16.77
2022-10-18T01:46:26.659Z,15.45
2022-10-18T01:48:54.824Z,16.27
2022-10-18T01:51:30.388Z,15.60
2022-10-18T01:53:57.587Z,17.48
2022-10-18T01:56:38.026Z,15.43
2022-10-18T01:59:07.786Z,14.07
2022-10-18T02:01:43.142Z,14.13
2022-10-18T02:04:34.757Z,16.08
2022-10-18T02:07:20.436Z,15.23
2022-10-18T02:09:55.206Z,17.42
2022-10-18T02:12:22.685Z,19.13
2022-10-18T02:14:49.789Z,16.05
2022-10-18T02:17:17.452Z,16.73
2022-10-18T02:19:48.631Z,16.33
2022-10-18T02:22:16.581Z,16.40
2022-10-18T02:24:47.928Z,17.20
2022-10-18T02:27:14.977Z,17.95
2022-10-18T02:29:42.404Z,14.77
2022-10-18T02:32:17.969Z,14.88
2022-10-18T02:34:51.565Z,15.52
2022-10-18T02:37:19.074Z,14.77
2022-10-18T02:39:48.397Z,14.45
2022-10-18T02:42:16.112Z,15.27
2022-10-18T02:44:43.228Z,15.00
2022-10-18T02:47:11.037Z,15.63
2022-10-18T02:49:37.883Z,15.05
2022-10-18T02:52:04.955Z,14.80
2022-10-18T02:54:31.781Z,17.30
2022-10-18T02:56:59.061Z,15.30
2022-10-18T02:59:25.887Z,18.00
2022-10-18T03:01:53.056Z,17.27
2022-10-18T03:04:20.009Z,17.23
2022-10-18T03:06:47.082Z,16.88
2022-10-18T03:09:13.859Z,13.85
2022-10-18T03:11:40.905Z,13.20
2022-10-18T03:14:07.700Z,13.75
2022-10-18T03:16:34.709Z,13.20
2022-10-18T03:19:01.545Z,13.13
2022-10-18T03:21:28.587Z,12.68
2022-10-18T03:23:56.109Z,13.00
2022-10-18T03:26:23.141Z,12.80
2022-10-18T03:28:50.030Z,13.65
2022-10-18T03:31:17.204Z,13.45
2022-10-18T03:33:44.119Z,12.68
2022-10-18T03:36:12.168Z,14.82
2022-10-18T03:38:38.922Z,12.82
2022-10-18T03:41:06.356Z,13.43
2022-10-18T03:43:33.166Z,13.18
2022-10-18T03:46:01.062Z,12.70
2022-10-18T03:48:28.176Z,13.55
2022-10-18T03:50:55.439Z,13.20
2022-10-18T03:53:22.271Z,12.32
2022-10-18T03:55:53.135Z,12.18
2022-10-18T03:58:20.441Z,13.20
2022-10-18T04:00:51.836Z,12.25
2022-10-18T04:03:19.486Z,13.05
2022-10-18T04:05:47.042Z,14.57
2022-10-18T04:08:14.884Z,15.80
2022-10-18T04:10:42.196Z,18.17
2022-10-18T04:13:09.468Z,17.73
2022-10-18T04:15:36.881Z,13.80
2022-10-18T04:18:03.883Z,14.63
2022-10-18T04:20:30.907Z,13.32
2022-10-18T04:22:58.215Z,13.02
2022-10-18T04:25:25.355Z,12.93
2022-10-18T04:27:52.191Z,12.45
2022-10-18T04:30:19.245Z,11.48
2022-10-18T04:32:46.004Z,12.63
2022-10-18T04:35:13.411Z,11.60
2022-10-18T04:37:40.253Z,12.40
2022-10-18T04:40:07.965Z,12.07
2022-10-18T04:42:34.864Z,13.43
2022-10-18T04:45:01.915Z,12.30
2022-10-18T04:47:29.114Z,12.80
2022-10-18T04:49:56.542Z,13.68
2022-10-18T04:52:23.541Z,12.52
2022-10-18T04:54:50.854Z,12.82
2022-10-18T04:57:17.686Z,12.90
2022-10-18T04:59:44.974Z,17.45
2022-10-18T05:02:11.875Z,13.13
2022-10-18T05:04:39.107Z,12.40
2022-10-18T05:07:06.690Z,12.23
2022-10-18T05:09:33.984Z,11.90
2022-10-18T05:12:00.806Z,12.65
2022-10-18T05:14:27.872Z,12.23
2022-10-18T05:16:54.654Z,11.48
2022-10-18T05:19:21.912Z,11.27
2022-10-18T05:21:48.788Z,11.98
2022-10-18T05:24:15.853Z,12.15
2022-10-18T05:26:42.743Z,11.68
2022-10-18T05:29:09.903Z,12.55
2022-10-18T05:31:36.811Z,12.38
2022-10-18T05:34:04.236Z,11.82
2022-10-18T05:36:31.243Z,11.15
2022-10-18T05:39:01.040Z,12.63
2022-10-18T05:41:31.535Z,11.57
2022-10-18T05:43:58.887Z,11.25
2022-10-18T05:46:25.739Z,10.68
2022-10-18T05:48:53.004Z,12.55
2022-10-18T05:51:19.940Z,10.63
2022-10-18T05:53:47.036Z,12.23
2022-10-18T05:56:14.499Z,11.05
2022-10-18T05:58:42.590Z,10.73
2022-10-18T06:01:10.419Z,10.98
2022-10-18T06:03:37.467Z,10.73
2022-10-18T06:06:10.684Z,11.13
2022-10-18T06:08:38.724Z,10.75
2022-10-18T06:11:13.805Z,10.82
2022-10-18T06:13:45.898Z,10.93
2022-10-18T06:16:14.258Z,10.85
2022-10-18T06:18:41.395Z,11.30
2022-10-18T06:21:09.027Z,11.27
2022-10-18T06:23:36.409Z,11.38
2022-10-18T06:26:05.878Z,12.35
2022-10-18T06:28:35.339Z,11.70
2022-10-18T06:31:02.577Z,11.55
2022-10-18T06:33:31.529Z,10.52
2022-10-18T06:36:00.269Z,11.25
2022-10-18T06:38:28.420Z,11.90
2022-10-18T06:40:56.067Z,11.50
2022-10-18T06:43:23.722Z,11.95
2022-10-18T06:45:50.942Z,12.05
2022-10-18T06:51:04.136Z,11.30
2022-10-18T06:53:33.678Z,11.35
2022-10-18T06:56:01.779Z,11.50
2022-10-18T06:58:29.838Z,11.27
2022-10-18T07:00:57.259Z,11.35
2022-10-18T07:03:24.337Z,10.43
2022-10-18T07:05:51.170Z,11.35
2022-10-18T07:08:18.742Z,10.57
2022-10-18T07:10:53.301Z,10.65
2022-10-18T07:13:32.010Z,10.68
2022-10-18T07:16:01.337Z,10.05
2022-10-18T07:18:28.716Z,10.27
2022-10-18T07:20:55.565Z,10.05
2022-10-18T07:23:23.954Z,10.77
2022-10-18T07:25:51.862Z,10.85
2022-10-18T07:28:18.983Z,10.40
2022-10-18T07:30:45.785Z,9.75
2022-10-18T07:33:12.934Z,10.38
2022-10-18T07:35:39.720Z,9.57
2022-10-18T07:38:06.828Z,10.30
2022-10-18T07:40:33.719Z,9.40
2022-10-18T07:43:04.548Z,9.65
2022-10-18T07:45:32.520Z,9.60
2022-10-18T07:47:59.591Z,8.88
2022-10-18T07:50:26.419Z,9.30
2022-10-18T07:52:53.494Z,8.85
2022-10-18T07:55:20.270Z,8.48
2022-10-18T07:57:47.612Z,9.48
2022-10-18T08:00:14.663Z,9.02
2022-10-18T08:02:42.372Z,8.15
2022-10-18T08:05:09.558Z,8.27
2022-10-18T08:07:36.642Z,8.80
2022-10-18T08:10:04.022Z,7.82
2022-10-18T08:12:31.309Z,8.10
2022-10-18T08:14:58.077Z,8.48
2022-10-18T08:17:25.118Z,8.07
2022-10-18T08:51:48.618Z,8.88
2022-10-18T08:54:25.682Z,7.50
2022-10-18T08:56:59.792Z,7.78
2022-10-18T08:59:31.057Z,8.30
2022-10-18T09:02:22.793Z,8.13
2022-10-18T09:05:17.583Z,8.13
2022-10-18T09:08:01.762Z,8.25
2022-10-18T09:11:16.483Z,7.95
2022-10-18T09:14:07.565Z,7.28
2022-10-18T09:16:46.401Z,7.80
2022-10-18T09:19:38.107Z,7.90
2022-10-18T09:22:13.932Z,7.80
2022-10-18T09:24:46.476Z,7.80
2022-10-18T09:27:18.344Z,8.20
2022-10-18T09:29:57.471Z,9.55
2022-10-18T09:32:30.961Z,9.32
2022-10-18T09:35:18.010Z,9.13
2022-10-18T09:37:45.422Z,7.65
2022-10-18T09:40:24.888Z,8.73
2022-10-18T09:43:12.300Z,8.05
2022-10-18T09:45:44.383Z,8.63
2022-10-18T09:48:28.448Z,10.10
2022-10-18T09:51:04.169Z,9.23
2022-10-18T09:53:42.298Z,10.07
2022-10-18T09:56:16.064Z,11.13
2022-10-18T09:58:48.504Z,10.02
2022-10-18T10:01:24.762Z,10.10
2022-10-18T10:03:52.225Z,9.85
2022-10-18T10:06:34.616Z,9.15
2022-10-18T10:09:15.974Z,10.07
2022-10-18T10:11:48.548Z,10.15
2022-10-18T10:16:50.319Z,9.90
2022-10-18T10:19:19.411Z,9.75
2022-10-18T10:21:47.928Z,10.00
2022-10-18T10:24:40.749Z,9.63
2022-10-18T10:27:18.707Z,9.30
2022-10-18T10:29:45.712Z,9.90
2022-10-18T10:32:14.778Z,9.38
2022-10-18T10:34:44.637Z,10.05
2022-10-18T10:37:30.693Z,9.63
2022-10-18T10:40:19.338Z,10.00
2022-10-18T10:43:18.120Z,9.95
2022-10-18T10:46:11.280Z,10.18
2022-10-18T10:48:46.923Z,10.35
2022-10-18T10:51:14.626Z,10.18
2022-10-18T10:54:01.735Z,9.57
2022-10-18T10:56:31.533Z,9.38
2022-10-18T10:59:07.080Z,9.02
2022-10-18T11:01:34.416Z,9.65
2022-10-18T11:04:04.842Z,9.43
2022-10-18T11:06:34.113Z,9.25
2022-10-18T11:09:04.077Z,9.65
2022-10-18T11:11:34.085Z,9.90
2022-10-18T11:14:25.232Z,8.88
2022-10-18T11:17:14.939Z,10.10
2022-10-18T11:19:59.099Z,10.55
2022-10-18T11:22:28.151Z,9.77
2022-10-18T11:24:55.738Z,10.05
2022-10-18T11:27:29.667Z,10.50
2022-10-18T11:30:37.594Z,9.93
2022-10-18T11:34:08.087Z,10.20
2022-10-18T11:37:09.754Z,9.85
2022-10-18T11:40:01.760Z,10.80
2022-10-18T11:43:06.127Z,9.48
2022-10-18T11:45:51.901Z,10.25
2022-10-18T11:48:37.755Z,10.85
2022-10-18T11:51:21.985Z,10.55
2022-10-18T11:54:17.954Z,10.88
2022-10-18T11:56:47.893Z,9.73
2022-10-18T11:59:35.982Z,10.02
2022-10-18T12:02:31.362Z,10.88
2022-10-18T12:07:54.067Z,11.23
2022-10-18T12:10:31.469Z,10.80
2022-10-18T12:13:13.643Z,12.20
2022-10-18T12:15:40.840Z,11.52
2022-10-18T12:18:15.161Z,10.85
2022-10-18T12:20:43.754Z,11.02
2022-10-18T12:23:17.981Z,10.52
2022-10-18T12:25:56.626Z,10.32
2022-10-18T12:28:29.549Z,10.52
2022-10-18T12:31:08.614Z,10.30
2022-10-18T12:33:42.291Z,10.98
2022-10-18T12:36:21.407Z,10.32
2022-10-18T12:38:57.279Z,9.55
2022-10-18T12:41:33.045Z,8.85
2022-10-18T12:44:07.293Z,8.65
2022-10-18T12:46:54.931Z,8.43
2022-10-18T12:49:28.696Z,9.93
2022-10-18T12:52:00.691Z,8.95
2022-10-18T12:54:32.279Z,9.13
2022-10-18T12:57:00.670Z,8.32
2022-10-18T12:59:27.678Z,8.07
2022-10-18T13:01:54.587Z,7.32
2022-10-18T13:04:28.106Z,8.07
2022-10-18T13:07:02.921Z,7.97
2022-10-18T13:09:41.232Z,8.15
2022-10-18T13:12:11.083Z,8.15
2022-10-18T13:14:59.198Z,7.63
2022-10-18T13:17:40.231Z,9.00
2022-10-18T13:20:25.125Z,9.02
2022-10-18T13:23:05.754Z,9.52
2022-10-18T13:25:41.642Z,8.68
2022-10-18T13:28:32.308Z,8.15
2022-10-18T13:31:20.717Z,8.02
2022-10-18T13:33:47.831Z,8.20
2022-10-18T13:36:22.650Z,8.82
2022-10-18T13:38:50.495Z,8.48
2022-10-18T13:43:54.221Z,9.68
2022-10-18T13:46:33.090Z,8.63
2022-10-18T13:49:15.018Z,8.25
2022-10-18T13:52:07.793Z,7.93
2022-10-18T13:54:55.227Z,7.75
2022-10-18T13:57:43.978Z,7.80
2022-10-18T14:00:49.273Z,7.20
2022-10-18T14:03:55.090Z,8.27
2022-10-18T14:06:16.617Z,8.48
2022-10-18T14:08:43.591Z,8.02
2022-10-18T14:11:29.325Z,8.30
2022-10-18T14:14:06.895Z,8.05
2022-10-18T14:16:37.653Z,8.15
2022-10-18T14:19:12.188Z,8.02
2022-10-18T14:21:40.494Z,8.25
2022-10-18T14:24:19.508Z,9.05
2022-10-18T14:26:46.547Z,10.05
2022-10-18T14:29:19.536Z,10.00
2022-10-18T14:31:54.352Z,9.60
2022-10-18T14:34:21.902Z,10.00
2022-10-18T14:36:49.712Z,10.55
2022-10-18T14:39:21.130Z,10.18
2022-10-18T14:41:56.722Z,10.63
2022-10-18T14:44:34.860Z,9.75
2022-10-18T14:47:04.319Z,9.63
2022-10-18T14:49:31.438Z,9.38
2022-10-18T14:51:59.593Z,9.48
2022-10-18T14:54:32.984Z,9.50
2022-10-18T14:57:01.085Z,8.82
2022-10-18T14:59:31.270Z,9.63
2022-10-18T15:02:12.651Z,9.60
2022-10-18T15:04:39.789Z,10.35
2022-10-18T15:07:07.919Z,9.30
2022-10-18T15:09:36.151Z,12.57
2022-10-18T15:12:05.742Z,11.18
2022-10-18T15:14:34.367Z,19.80
2022-10-18T15:17:30.107Z,36.63
2022-10-18T15:20:01.807Z,29.25
2022-10-18T15:22:33.196Z,58.47
2022-10-18T15:25:09.829Z,56.25
2022-10-18T15:27:38.657Z,48.83
2022-10-18T15:30:08.685Z,67.28
2022-10-18T15:32:35.736Z,58.58
2022-10-18T15:35:16.986Z,54.88
2022-10-18T15:37:47.956Z,72.40
2022-10-18T15:40:24.178Z,112.07
2022-10-18T15:42:59.449Z,36.67
2022-10-18T15:45:29.085Z,34.17
2022-10-18T15:48:10.808Z,70.90
2022-10-18T15:50:42.231Z,45.25
2022-10-18T15:53:21.283Z,45.40
2022-10-18T15:56:12.631Z,38.45
2022-10-18T15:58:45.448Z,54.28
2022-10-18T16:01:28.064Z,87.75
2022-10-18T16:06:26.979Z,82.97
2022-10-18T16:08:54.100Z,135.32
2022-10-18T16:11:25.448Z,163.27
2022-10-18T16:13:55.213Z,92.18
2022-10-18T16:16:27.068Z,63.50
2022-10-18T16:18:54.190Z,90.47
2022-10-18T16:21:31.936Z,91.38
2022-10-18T16:23:58.891Z,75.30
2022-10-18T16:26:27.453Z,43.28
2022-10-18T16:28:55.275Z,32.63
2022-10-18T16:31:25.057Z,34.40
2022-10-18T16:33:53.171Z,46.88
2022-10-18T16:36:26.006Z,22.95
2022-10-18T16:38:55.167Z,15.02
2022-10-18T16:41:23.442Z,20.27
2022-10-18T16:43:50.693Z,10.90
2022-10-18T16:46:17.744Z,25.33
2022-10-18T16:48:45.588Z,20.15
2022-10-18T16:51:12.829Z,13.25
2022-10-18T16:53:39.778Z,14.15
2022-10-18T16:56:13.312Z,18.13
2022-10-18T16:58:40.263Z,14.52
2022-10-18T17:01:09.004Z,13.93
2022-10-18T17:03:36.137Z,14.50
2022-10-18T17:06:03.194Z,15.35
2022-10-18T17:08:30.126Z,17.13
2022-10-18T17:10:59.024Z,15.43
2022-10-18T17:13:26.241Z,15.00
2022-10-18T17:15:53.861Z,16.17
2022-10-18T17:18:24.710Z,14.93
2022-10-18T17:20:51.815Z,16.48
2022-10-18T17:23:18.646Z,16.10
2022-10-18T17:25:59.003Z,18.17
2022-10-18T17:28:34.286Z,16.70
2022-10-18T17:31:01.563Z,17.70
2022-10-18T17:33:28.403Z,17.85
2022-10-18T17:35:55.402Z,19.08
2022-10-18T17:38:22.283Z,18.98
2022-10-18T17:40:49.533Z,17.63
2022-10-18T17:43:16.453Z,17.42
2022-10-18T17:45:51.122Z,18.50
2022-10-18T17:48:17.988Z,17.95
2022-10-18T17:50:45.077Z,18.20
2022-10-18T17:53:13.142Z,18.77
2022-10-18T17:55:40.398Z,19.05
2022-10-18T17:58:07.247Z,18.20
2022-10-18T18:00:34.341Z,20.27
2022-10-18T18:03:01.212Z,18.30
2022-10-18T18:05:32.861Z,19.33
2022-10-18T18:08:03.746Z,19.38
2022-10-18T18:10:35.272Z,18.58
2022-10-18T18:13:02.568Z,19.35
2022-10-18T18:15:29.870Z,19.48
2022-10-18T18:17:57.864Z,20.63
2022-10-18T18:20:26.345Z,21.00
2022-10-18T18:22:53.526Z,20.70
2022-10-18T18:25:20.653Z,21.58
2022-10-18T18:27:47.574Z,22.58
2022-10-18T18:30:17.896Z,23.65
2022-10-18T18:32:45.146Z,28.00
2022-10-18T18:35:12.113Z,28.00
2022-10-18T18:37:38.972Z,26.98
2022-10-18T18:40:06.515Z,25.00
2022-10-18T18:42:33.504Z,21.38
2022-10-18T18:45:00.738Z,21.40
2022-10-18T18:47:28.065Z,20.25
2022-10-18T18:49:55.123Z,20.02
2022-10-18T18:52:21.899Z,29.63
2022-10-18T18:54:48.963Z,21.85
2022-10-18T18:57:17.041Z,21.10
2022-10-18T18:59:44.211Z,20.50
2022-10-18T19:02:10.992Z,21.50
2022-10-18T19:04:38.232Z,24.00
2022-10-18T19:07:05.011Z,27.13
2022-10-18T19:09:32.822Z,29.33
2022-10-18T19:11:59.713Z,27.02
2022-10-18T19:14:28.919Z,27.40
2022-10-18T19:17:01.710Z,26.10
2022-10-18T19:19:30.562Z,24.23
2022-10-18T19:21:59.548Z,21.10
2022-10-18T19:24:28.359Z,17.58
2022-10-18T19:26:57.528Z,15.10
2022-10-18T19:29:27.081Z,10.38
2022-10-18T19:31:56.698Z,7.50
2022-10-18T19:34:25.075Z,8.80
2022-10-18T19:36:52.180Z,8.00
2022-10-18T19:39:30.346Z,4.70
2022-10-18T19:41:58.844Z,3.55
2022-10-18T19:44:29.601Z,3.10
2022-10-18T19:46:57.051Z,2.63
2022-10-18T19:49:24.337Z,2.30
2022-10-18T19:51:51.154Z,2.65
2022-10-18T19:54:18.447Z,1.98
2022-10-18T19:56:45.860Z,2.00
2022-10-18T19:59:15.105Z,2.33
2022-10-18T20:01:42.439Z,2.20
2022-10-18T20:04:10.365Z,2.42
2022-10-18T20:06:38.307Z,2.00
2022-10-18T20:09:06.768Z,2.13
2022-10-18T20:11:33.638Z,2.13
2022-10-18T20:14:00.672Z,2.00
2022-10-18T20:16:33.504Z,2.72
2022-10-18T20:19:03.460Z,2.47
2022-10-18T20:21:32.560Z,2.60
2022-10-18T20:23:59.601Z,2.63
2022-10-18T20:26:26.480Z,2.45
2022-10-18T20:28:59.535Z,2.63
2022-10-18T20:31:31.642Z,2.70
2022-10-18T20:34:00.926Z,2.40
2022-10-18T20:36:30.249Z,2.50
2022-10-18T20:38:57.524Z,2.75
2022-10-18T20:41:29.405Z,2.80
2022-10-18T20:44:01.803Z,3.03
2022-10-18T20:46:34.546Z,2.67
2022-10-18T20:49:01.760Z,3.00
2022-10-18T20:51:28.743Z,3.50
2022-10-18T20:53:56.198Z,3.30
2022-10-18T20:56:26.466Z,3.10
2022-10-18T20:58:55.762Z,3.13
2022-10-18T21:01:24.695Z,3.47
2022-10-18T21:03:53.656Z,3.70
2022-10-18T21:06:23.747Z,3.70
2022-10-18T21:08:57.804Z,3.88
2022-10-18T21:11:25.485Z,4.10
2022-10-18T21:13:54.275Z,3.95
2022-10-18T21:16:21.149Z,3.92
2022-10-18T21:18:48.891Z,3.75
2022-10-18T21:21:18.108Z,3.85
2022-10-18T21:23:45.565Z,3.88
2022-10-18T21:26:26.353Z,4.13
2022-10-18T21:28:56.687Z,4.78
2022-10-18T21:31:25.682Z,5.55
2022-10-18T21:33:54.790Z,5.68
2022-10-18T21:36:21.805Z,6.07
2022-10-18T21:38:49.258Z,6.38
2022-10-18T21:41:17.712Z,6.35
2022-10-18T21:43:50.250Z,6.53
2022-10-18T21:46:18.390Z,8.30
2022-10-18T21:48:47.622Z,7.90
2022-10-18T21:51:16.341Z,7.53
2022-10-18T21:53:44.427Z,8.20
2022-10-18T21:56:13.789Z,8.30
2022-10-18T21:58:41.705Z,7.32
2022-10-18T22:01:13.282Z,8.20
2022-10-18T22:03:40.724Z,6.53
2022-10-18T22:06:13.812Z,7.55
2022-10-18T22:08:54.888Z,7.22
2022-10-18T22:11:36.520Z,7.35
2022-10-18T22:14:03.815Z,7.25
2022-10-18T22:16:30.579Z,7.78
2022-10-18T22:18:59.714Z,7.68
2022-10-18T22:21:27.117Z,9.02
2022-10-18T22:23:58.746Z,8.05
2022-10-18T22:26:30.837Z,7.55
2022-10-18T22:29:00.703Z,7.30
2022-10-18T22:31:30.060Z,7.93
2022-10-18T22:33:59.435Z,7.40
2022-10-18T22:36:27.262Z,7.10
2022-10-18T22:38:54.555Z,7.00
2022-10-18T22:41:21.585Z,6.80
2022-10-18T22:43:50.729Z,6.20
2022-10-18T22:46:17.813Z,5.85
2022-10-18T22:48:44.987Z,6.20
2022-10-18T22:51:12.291Z,6.53
2022-10-18T22:53:40.060Z,6.72
2022-10-18T22:56:08.290Z,6.88
2022-10-18T22:58:35.365Z,7.68
2022-10-18T23:01:07.630Z,7.55
2022-10-18T23:03:35.510Z,8.13
2022-10-18T23:06:02.572Z,7.47
2022-10-18T23:08:30.142Z,7.78
2022-10-18T23:10:58.834Z,8.05
2022-10-18T23:13:26.824Z,8.80
2022-10-18T23:16:04.295Z,8.02
2022-10-18T23:18:32.978Z,8.25
2022-10-18T23:21:05.144Z,8.27
2022-10-18T23:23:35.424Z,8.35
2022-10-18T23:26:13.190Z,7.22
2022-10-18T23:28:45.187Z,7.15
2022-10-18T23:31:24.265Z,8.35
2022-10-18T23:33:53.858Z,8.13
2022-10-18T23:36:22.231Z,9.10
2022-10-18T23:38:49.520Z,9.25
2022-10-18T23:41:17.442Z,8.40
2022-10-18T23:43:44.686Z,7.78
2022-10-18T23:46:12.064Z,7.70
2022-10-18T23:48:39.456Z,7.85
2022-10-18T23:51:07.753Z,7.53
2022-10-18T23:53:35.326Z,7.32
2022-10-18T23:56:04.731Z,7.43
2022-10-18T23:58:33.058Z,8.02
